Pahoa, Hawaii
Current Conditions -  °F | °C
As of 11:53 AM on Wednesday 28 Jan 2015 (Local Time) from PHTO Reporting Station
Broken Clouds Broken Clouds  
Wind Chill: 79°   Ceiling: 5000
Heat Index: 80°   Visibility: 10mi
Dew Point: 62°   Wind: 6mph
Humidity: 56%   Direction: 140°SE
Pressure: 29.97"   Gusts: NA
Location:  19.49°N, 154.94°W
Report Text: PHTO 282153Z 14005KT 10SM FEW034 BKN050 26/17 A2997 RMK AO2 SLP147 T02610167
Loading
Personal Weather Stations






























Interactive Weather Map New forecast layout! Learn more

10-Day Weather Forecast

Advertisements
Track Severe Weather on mobile